sensor_id;sensor_type;location;lat;lon;timestamp;P1;durP1;ratioP1;P2;durP2;ratioP2
25349;SDS011;13302;48.796;11.978;2023-06-05T00:01:59;2.30;;;2.20;;
25349;SDS011;13302;48.796;11.978;2023-06-05T00:04:47;2.40;;;2.23;;
25349;SDS011;13302;48.796;11.978;2023-06-05T00:07:34;3.67;;;2.43;;
25349;SDS011;13302;48.796;11.978;2023-06-05T00:10:24;2.77;;;2.57;;
25349;SDS011;13302;48.796;11.978;2023-06-05T00:13:11;2.80;;;2.60;;
25349;SDS011;13302;48.796;11.978;2023-06-05T00:15:58;2.63;;;2.43;;
25349;SDS011;13302;48.796;11.978;2023-06-05T00:18:45;2.93;;;2.73;;
25349;SDS011;13302;48.796;11.978;2023-06-05T00:21:32;2.30;;;2.20;;
25349;SDS011;13302;48.796;11.978;2023-06-05T00:24:19;4.27;;;2.40;;
25349;SDS011;13302;48.796;11.978;2023-06-05T00:27:06;2.30;;;2.13;;
25349;SDS011;13302;48.796;11.978;2023-06-05T00:29:53;2.40;;;2.30;;
25349;SDS011;13302;48.796;11.978;2023-06-05T00:32:41;2.37;;;2.27;;
25349;SDS011;13302;48.796;11.978;2023-06-05T00:35:28;2.60;;;2.40;;
25349;SDS011;13302;48.796;11.978;2023-06-05T00:38:15;2.40;;;2.30;;
25349;SDS011;13302;48.796;11.978;2023-06-05T00:41:02;2.70;;;2.50;;
25349;SDS011;13302;48.796;11.978;2023-06-05T00:43:50;2.70;;;2.50;;
25349;SDS011;13302;48.796;11.978;2023-06-05T00:46:37;2.63;;;2.53;;
25349;SDS011;13302;48.796;11.978;2023-06-05T00:49:25;2.40;;;2.20;;
25349;SDS011;13302;48.796;11.978;2023-06-05T00:52:13;3.10;;;2.83;;
25349;SDS011;13302;48.796;11.978;2023-06-05T00:55:01;2.70;;;2.50;;
25349;SDS011;13302;48.796;11.978;2023-06-05T00:57:48;2.70;;;2.60;;
25349;SDS011;13302;48.796;11.978;2023-06-05T01:00:36;2.80;;;2.70;;
25349;SDS011;13302;48.796;11.978;2023-06-05T01:03:23;2.50;;;2.40;;
25349;SDS011;13302;48.796;11.978;2023-06-05T01:06:11;2.80;;;2.60;;
25349;SDS011;13302;48.796;11.978;2023-06-05T01:08:58;3.70;;;2.67;;
25349;SDS011;13302;48.796;11.978;2023-06-05T01:15:24;3.20;;;3.00;;
25349;SDS011;13302;48.796;11.978;2023-06-05T01:18:16;3.30;;;3.07;;
25349;SDS011;13302;48.796;11.978;2023-06-05T01:21:09;3.00;;;2.80;;
25349;SDS011;13302;48.796;11.978;2023-06-05T01:24:00;2.37;;;2.27;;
25349;SDS011;13302;48.796;11.978;2023-06-05T01:32:55;3.27;;;2.97;;
25349;SDS011;13302;48.796;11.978;2023-06-05T01:35:49;4.23;;;2.53;;
25349;SDS011;13302;48.796;11.978;2023-06-05T01:38:38;2.30;;;2.10;;
25349;SDS011;13302;48.796;11.978;2023-06-05T01:41:27;2.70;;;2.50;;
25349;SDS011;13302;48.796;11.978;2023-06-05T01:44:15;2.43;;;2.17;;
25349;SDS011;13302;48.796;11.978;2023-06-05T01:47:04;2.63;;;2.23;;
25349;SDS011;13302;48.796;11.978;2023-06-05T01:49:52;2.20;;;2.10;;
25349;SDS011;13302;48.796;11.978;2023-06-05T01:52:40;2.37;;;2.23;;
25349;SDS011;13302;48.796;11.978;2023-06-05T01:55:28;2.37;;;2.17;;
25349;SDS011;13302;48.796;11.978;2023-06-05T01:58:15;2.23;;;2.13;;
25349;SDS011;13302;48.796;11.978;2023-06-05T02:01:03;2.43;;;2.33;;
25349;SDS011;13302;48.796;11.978;2023-06-05T02:03:50;2.03;;;1.93;;
25349;SDS011;13302;48.796;11.978;2023-06-05T02:06:37;2.43;;;2.23;;
25349;SDS011;13302;48.796;11.978;2023-06-05T02:09:32;2.10;;;2.00;;
25349;SDS011;13302;48.796;11.978;2023-06-05T02:12:19;2.40;;;2.30;;
25349;SDS011;13302;48.796;11.978;2023-06-05T02:15:06;2.33;;;2.23;;
25349;SDS011;13302;48.796;11.978;2023-06-05T02:17:54;2.20;;;2.10;;
25349;SDS011;13302;48.796;11.978;2023-06-05T02:20:41;2.33;;;2.20;;
25349;SDS011;13302;48.796;11.978;2023-06-05T02:23:29;2.00;;;1.90;;
25349;SDS011;13302;48.796;11.978;2023-06-05T02:26:16;2.33;;;2.23;;
25349;SDS011;13302;48.796;11.978;2023-06-05T02:29:04;2.20;;;2.10;;
25349;SDS011;13302;48.796;11.978;2023-06-05T02:31:52;2.10;;;2.00;;
25349;SDS011;13302;48.796;11.978;2023-06-05T02:34:39;2.33;;;2.23;;
25349;SDS011;13302;48.796;11.978;2023-06-05T02:37:27;2.10;;;2.00;;
25349;SDS011;13302;48.796;11.978;2023-06-05T02:40:15;2.40;;;2.20;;
25349;SDS011;13302;48.796;11.978;2023-06-05T02:43:02;2.37;;;2.20;;
25349;SDS011;13302;48.796;11.978;2023-06-05T02:45:52;2.27;;;2.17;;
25349;SDS011;13302;48.796;11.978;2023-06-05T02:48:40;2.50;;;2.30;;
25349;SDS011;13302;48.796;11.978;2023-06-05T02:51:27;1.97;;;1.87;;
25349;SDS011;13302;48.796;11.978;2023-06-05T02:54:14;1.90;;;1.80;;
25349;SDS011;13302;48.796;11.978;2023-06-05T02:57:02;2.37;;;2.23;;
25349;SDS011;13302;48.796;11.978;2023-06-05T02:59:52;2.20;;;2.00;;
25349;SDS011;13302;48.796;11.978;2023-06-05T03:02:40;2.03;;;1.97;;
25349;SDS011;13302;48.796;11.978;2023-06-05T03:05:27;2.00;;;1.90;;
25349;SDS011;13302;48.796;11.978;2023-06-05T03:08:20;2.40;;;2.30;;
25349;SDS011;13302;48.796;11.978;2023-06-05T03:11:08;2.47;;;2.10;;
25349;SDS011;13302;48.796;11.978;2023-06-05T03:13:55;2.33;;;2.23;;
25349;SDS011;13302;48.796;11.978;2023-06-05T03:16:46;2.13;;;2.03;;
25349;SDS011;13302;48.796;11.978;2023-06-05T03:19:35;2.53;;;2.27;;
25349;SDS011;13302;48.796;11.978;2023-06-05T03:22:23;1.93;;;1.90;;
25349;SDS011;13302;48.796;11.978;2023-06-05T03:25:11;2.20;;;2.10;;
25349;SDS011;13302;48.796;11.978;2023-06-05T03:28:00;2.27;;;2.07;;
25349;SDS011;13302;48.796;11.978;2023-06-05T03:30:48;2.73;;;2.10;;
25349;SDS011;13302;48.796;11.978;2023-06-05T03:33:38;1.90;;;1.90;;
25349;SDS011;13302;48.796;11.978;2023-06-05T03:36:25;2.00;;;1.90;;
25349;SDS011;13302;48.796;11.978;2023-06-05T03:39:16;2.20;;;2.10;;
25349;SDS011;13302;48.796;11.978;2023-06-05T03:42:03;2.17;;;2.07;;
25349;SDS011;13302;48.796;11.978;2023-06-05T03:44:53;1.90;;;1.83;;
25349;SDS011;13302;48.796;11.978;2023-06-05T03:47:41;3.23;;;2.20;;
25349;SDS011;13302;48.796;11.978;2023-06-05T03:50:31;1.80;;;1.70;;
25349;SDS011;13302;48.796;11.978;2023-06-05T03:53:20;2.30;;;2.20;;
25349;SDS011;13302;48.796;11.978;2023-06-05T03:56:10;2.30;;;2.10;;
25349;SDS011;13302;48.796;11.978;2023-06-05T03:58:59;2.57;;;2.37;;
25349;SDS011;13302;48.796;11.978;2023-06-05T04:01:58;2.23;;;2.03;;
25349;SDS011;13302;48.796;11.978;2023-06-05T04:04:45;2.73;;;2.40;;
25349;SDS011;13302;48.796;11.978;2023-06-05T04:07:32;2.30;;;2.20;;
25349;SDS011;13302;48.796;11.978;2023-06-05T04:10:21;2.17;;;2.07;;
25349;SDS011;13302;48.796;11.978;2023-06-05T04:13:08;2.00;;;1.90;;
25349;SDS011;13302;48.796;11.978;2023-06-05T04:15:57;2.10;;;1.90;;
25349;SDS011;13302;48.796;11.978;2023-06-05T04:18:45;2.97;;;2.00;;
25349;SDS011;13302;48.796;11.978;2023-06-05T04:21:33;1.60;;;1.50;;
25349;SDS011;13302;48.796;11.978;2023-06-05T04:24:25;1.80;;;1.80;;
25349;SDS011;13302;48.796;11.978;2023-06-05T04:27:12;2.23;;;2.13;;
25349;SDS011;13302;48.796;11.978;2023-06-05T04:30:00;1.90;;;1.80;;
25349;SDS011;13302;48.796;11.978;2023-06-05T04:32:48;2.07;;;1.97;;
25349;SDS011;13302;48.796;11.978;2023-06-05T04:35:43;2.10;;;1.93;;
25349;SDS011;13302;48.796;11.978;2023-06-05T04:38:30;2.13;;;2.03;;
25349;SDS011;13302;48.796;11.978;2023-06-05T04:41:18;2.27;;;2.17;;
25349;SDS011;13302;48.796;11.978;2023-06-05T04:44:05;2.30;;;2.17;;
25349;SDS011;13302;48.796;11.978;2023-06-05T04:46:52;2.17;;;2.07;;
25349;SDS011;13302;48.796;11.978;2023-06-05T04:49:39;2.07;;;1.97;;
25349;SDS011;13302;48.796;11.978;2023-06-05T04:52:27;2.07;;;1.80;;
25349;SDS011;13302;48.796;11.978;2023-06-05T04:55:16;2.27;;;2.07;;
25349;SDS011;13302;48.796;11.978;2023-06-05T04:58:03;3.37;;;2.23;;
25349;SDS011;13302;48.796;11.978;2023-06-05T05:00:51;2.10;;;2.00;;
25349;SDS011;13302;48.796;11.978;2023-06-05T05:03:40;2.57;;;2.43;;
25349;SDS011;13302;48.796;11.978;2023-06-05T05:06:29;2.30;;;2.10;;
25349;SDS011;13302;48.796;11.978;2023-06-05T05:09:17;2.47;;;2.20;;
25349;SDS011;13302;48.796;11.978;2023-06-05T05:12:06;2.10;;;1.90;;
25349;SDS011;13302;48.796;11.978;2023-06-05T05:14:54;3.20;;;2.10;;
25349;SDS011;13302;48.796;11.978;2023-06-05T05:17:41;2.00;;;1.90;;
25349;SDS011;13302;48.796;11.978;2023-06-05T05:20:29;1.70;;;1.60;;
25349;SDS011;13302;48.796;11.978;2023-06-05T05:23:16;2.00;;;1.90;;
25349;SDS011;13302;48.796;11.978;2023-06-05T05:26:05;2.60;;;2.40;;
25349;SDS011;13302;48.796;11.978;2023-06-05T05:28:53;2.20;;;2.00;;
25349;SDS011;13302;48.796;11.978;2023-06-05T05:31:41;2.10;;;1.90;;
25349;SDS011;13302;48.796;11.978;2023-06-05T05:34:28;2.23;;;2.13;;
25349;SDS011;13302;48.796;11.978;2023-06-05T05:37:15;2.27;;;2.17;;
25349;SDS011;13302;48.796;11.978;2023-06-05T05:40:02;1.90;;;1.80;;
25349;SDS011;13302;48.796;11.978;2023-06-05T05:42:50;2.50;;;2.00;;
25349;SDS011;13302;48.796;11.978;2023-06-05T05:45:37;3.07;;;2.20;;
25349;SDS011;13302;48.796;11.978;2023-06-05T05:48:26;2.53;;;2.10;;
25349;SDS011;13302;48.796;11.978;2023-06-05T05:51:13;2.23;;;2.07;;
25349;SDS011;13302;48.796;11.978;2023-06-05T05:54:00;3.20;;;2.20;;
25349;SDS011;13302;48.796;11.978;2023-06-05T05:56:47;2.00;;;1.90;;
25349;SDS011;13302;48.796;11.978;2023-06-05T05:59:34;2.00;;;1.90;;
25349;SDS011;13302;48.796;11.978;2023-06-05T06:02:22;2.50;;;2.30;;
25349;SDS011;13302;48.796;11.978;2023-06-05T06:05:09;2.30;;;2.10;;
25349;SDS011;13302;48.796;11.978;2023-06-05T06:07:56;2.43;;;2.20;;
25349;SDS011;13302;48.796;11.978;2023-06-05T06:10:43;2.47;;;2.27;;
25349;SDS011;13302;48.796;11.978;2023-06-05T06:13:32;2.90;;;2.40;;
25349;SDS011;13302;48.796;11.978;2023-06-05T06:16:20;2.50;;;2.20;;
25349;SDS011;13302;48.796;11.978;2023-06-05T06:19:07;3.17;;;2.13;;
25349;SDS011;13302;48.796;11.978;2023-06-05T06:21:55;2.47;;;2.27;;
25349;SDS011;13302;48.796;11.978;2023-06-05T06:24:42;2.53;;;2.40;;
25349;SDS011;13302;48.796;11.978;2023-06-05T06:27:29;2.70;;;2.60;;
25349;SDS011;13302;48.796;11.978;2023-06-05T06:30:21;2.50;;;2.30;;
25349;SDS011;13302;48.796;11.978;2023-06-05T06:33:08;2.30;;;2.20;;
25349;SDS011;13302;48.796;11.978;2023-06-05T06:35:55;2.60;;;2.50;;
25349;SDS011;13302;48.796;11.978;2023-06-05T06:38:45;2.73;;;2.60;;
25349;SDS011;13302;48.796;11.978;2023-06-05T06:41:32;2.57;;;2.47;;
25349;SDS011;13302;48.796;11.978;2023-06-05T06:44:19;2.53;;;2.33;;
25349;SDS011;13302;48.796;11.978;2023-06-05T06:47:06;2.90;;;2.70;;
25349;SDS011;13302;48.796;11.978;2023-06-05T06:49:54;2.40;;;2.20;;
25349;SDS011;13302;48.796;11.978;2023-06-05T06:52:41;2.67;;;2.47;;
25349;SDS011;13302;48.796;11.978;2023-06-05T06:55:28;2.80;;;2.60;;
25349;SDS011;13302;48.796;11.978;2023-06-05T06:58:15;3.77;;;2.60;;
25349;SDS011;13302;48.796;11.978;2023-06-05T07:01:03;2.60;;;2.40;;
25349;SDS011;13302;48.796;11.978;2023-06-05T07:03:50;2.97;;;2.77;;
25349;SDS011;13302;48.796;11.978;2023-06-05T07:06:37;2.40;;;2.30;;
25349;SDS011;13302;48.796;11.978;2023-06-05T07:09:25;2.87;;;2.63;;
25349;SDS011;13302;48.796;11.978;2023-06-05T07:12:12;2.97;;;2.70;;
25349;SDS011;13302;48.796;11.978;2023-06-05T07:15:01;4.57;;;2.80;;
25349;SDS011;13302;48.796;11.978;2023-06-05T07:17:48;4.43;;;2.80;;
25349;SDS011;13302;48.796;11.978;2023-06-05T07:20:35;3.43;;;3.13;;
25349;SDS011;13302;48.796;11.978;2023-06-05T07:23:23;3.03;;;2.83;;
25349;SDS011;13302;48.796;11.978;2023-06-05T07:26:10;2.83;;;2.63;;
25349;SDS011;13302;48.796;11.978;2023-06-05T07:28:59;2.73;;;2.63;;
25349;SDS011;13302;48.796;11.978;2023-06-05T07:31:47;3.20;;;3.00;;
25349;SDS011;13302;48.796;11.978;2023-06-05T07:34:34;3.27;;;2.97;;
25349;SDS011;13302;48.796;11.978;2023-06-05T07:37:22;3.97;;;2.87;;
25349;SDS011;13302;48.796;11.978;2023-06-05T07:40:09;3.57;;;3.27;;
25349;SDS011;13302;48.796;11.978;2023-06-05T07:42:56;3.53;;;3.00;;
25349;SDS011;13302;48.796;11.978;2023-06-05T07:45:43;3.60;;;3.30;;
25349;SDS011;13302;48.796;11.978;2023-06-05T07:48:31;3.67;;;3.37;;
25349;SDS011;13302;48.796;11.978;2023-06-05T07:51:18;3.17;;;2.93;;
25349;SDS011;13302;48.796;11.978;2023-06-05T07:54:05;3.50;;;3.30;;
25349;SDS011;13302;48.796;11.978;2023-06-05T07:56:54;3.70;;;3.50;;
25349;SDS011;13302;48.796;11.978;2023-06-05T07:59:44;10.87;;;6.87;;
25349;SDS011;13302;48.796;11.978;2023-06-05T08:02:31;15.00;;;9.17;;
25349;SDS011;13302;48.796;11.978;2023-06-05T08:05:18;10.47;;;9.47;;
25349;SDS011;13302;48.796;11.978;2023-06-05T08:08:05;6.43;;;5.83;;
25349;SDS011;13302;48.796;11.978;2023-06-05T08:10:53;4.67;;;4.27;;
25349;SDS011;13302;48.796;11.978;2023-06-05T08:13:40;3.60;;;3.40;;
25349;SDS011;13302;48.796;11.978;2023-06-05T08:16:27;6.03;;;4.60;;
25349;SDS011;13302;48.796;11.978;2023-06-05T08:19:14;4.00;;;3.70;;
25349;SDS011;13302;48.796;11.978;2023-06-05T08:22:01;3.70;;;3.50;;
25349;SDS011;13302;48.796;11.978;2023-06-05T08:24:49;3.80;;;3.60;;
25349;SDS011;13302;48.796;11.978;2023-06-05T08:27:37;3.63;;;3.43;;
25349;SDS011;13302;48.796;11.978;2023-06-05T08:30:24;4.00;;;3.67;;
25349;SDS011;13302;48.796;11.978;2023-06-05T08:33:11;3.93;;;3.67;;
25349;SDS011;13302;48.796;11.978;2023-06-05T08:35:58;3.80;;;3.50;;
25349;SDS011;13302;48.796;11.978;2023-06-05T08:38:45;3.60;;;3.40;;
25349;SDS011;13302;48.796;11.978;2023-06-05T08:41:32;4.33;;;4.00;;
25349;SDS011;13302;48.796;11.978;2023-06-05T08:44:19;3.80;;;3.50;;
25349;SDS011;13302;48.796;11.978;2023-06-05T08:47:06;8.10;;;3.93;;
25349;SDS011;13302;48.796;11.978;2023-06-05T08:49:55;6.57;;;5.97;;
25349;SDS011;13302;48.796;11.978;2023-06-05T08:52:44;5.30;;;4.87;;
25349;SDS011;13302;48.796;11.978;2023-06-05T08:55:33;4.73;;;4.43;;
25349;SDS011;13302;48.796;11.978;2023-06-05T08:58:20;5.30;;;4.80;;
25349;SDS011;13302;48.796;11.978;2023-06-05T09:01:08;4.60;;;4.10;;
25349;SDS011;13302;48.796;11.978;2023-06-05T09:03:56;4.00;;;3.70;;
25349;SDS011;13302;48.796;11.978;2023-06-05T09:06:46;3.97;;;3.57;;
25349;SDS011;13302;48.796;11.978;2023-06-05T09:09:33;4.17;;;3.87;;
25349;SDS011;13302;48.796;11.978;2023-06-05T09:12:21;4.10;;;3.80;;
25349;SDS011;13302;48.796;11.978;2023-06-05T09:15:20;4.57;;;4.17;;
25349;SDS011;13302;48.796;11.978;2023-06-05T09:18:10;23.67;;;21.20;;
25349;SDS011;13302;48.796;11.978;2023-06-05T09:20:58;28.30;;;24.70;;
25349;SDS011;13302;48.796;11.978;2023-06-05T09:24:14;13.67;;;12.27;;
25349;SDS011;13302;48.796;11.978;2023-06-05T09:27:02;6.93;;;5.83;;
25349;SDS011;13302;48.796;11.978;2023-06-05T09:30:01;4.23;;;3.93;;
25349;SDS011;13302;48.796;11.978;2023-06-05T09:32:49;3.53;;;3.33;;
25349;SDS011;13302;48.796;11.978;2023-06-05T09:35:38;3.20;;;3.00;;
25349;SDS011;13302;48.796;11.978;2023-06-05T09:38:26;3.27;;;3.07;;
25349;SDS011;13302;48.796;11.978;2023-06-05T09:41:14;3.13;;;2.93;;
25349;SDS011;13302;48.796;11.978;2023-06-05T09:44:01;3.43;;;3.23;;
25349;SDS011;13302;48.796;11.978;2023-06-05T09:52:29;3.07;;;2.87;;
25349;SDS011;13302;48.796;11.978;2023-06-05T09:55:16;2.50;;;2.40;;
25349;SDS011;13302;48.796;11.978;2023-06-05T09:58:04;2.80;;;2.60;;
25349;SDS011;13302;48.796;11.978;2023-06-05T10:00:57;3.03;;;2.87;;
25349;SDS011;13302;48.796;11.978;2023-06-05T10:03:58;3.30;;;3.10;;
25349;SDS011;13302;48.796;11.978;2023-06-05T10:07:05;3.47;;;3.17;;
25349;SDS011;13302;48.796;11.978;2023-06-05T10:09:52;3.60;;;3.30;;
25349;SDS011;13302;48.796;11.978;2023-06-05T10:12:40;3.33;;;3.13;;
25349;SDS011;13302;48.796;11.978;2023-06-05T10:15:30;3.00;;;2.80;;
25349;SDS011;13302;48.796;11.978;2023-06-05T10:18:18;3.50;;;3.10;;
25349;SDS011;13302;48.796;11.978;2023-06-05T10:21:06;2.60;;;2.50;;
25349;SDS011;13302;48.796;11.978;2023-06-05T10:23:58;2.47;;;2.33;;
25349;SDS011;13302;48.796;11.978;2023-06-05T10:33:11;2.63;;;2.50;;
25349;SDS011;13302;48.796;11.978;2023-06-05T10:36:22;2.47;;;2.37;;
25349;SDS011;13302;48.796;11.978;2023-06-05T10:39:45;2.40;;;2.30;;
25349;SDS011;13302;48.796;11.978;2023-06-05T10:42:33;2.53;;;2.43;;
25349;SDS011;13302;48.796;11.978;2023-06-05T10:45:30;2.47;;;2.30;;
25349;SDS011;13302;48.796;11.978;2023-06-05T10:48:18;2.87;;;2.23;;
25349;SDS011;13302;48.796;11.978;2023-06-05T10:57:11;2.30;;;2.20;;
25349;SDS011;13302;48.796;11.978;2023-06-05T11:00:05;2.00;;;1.90;;
25349;SDS011;13302;48.796;11.978;2023-06-05T11:02:53;2.73;;;2.53;;
25349;SDS011;13302;48.796;11.978;2023-06-05T11:05:40;2.50;;;2.30;;
25349;SDS011;13302;48.796;11.978;2023-06-05T11:09:06;2.50;;;2.40;;
25349;SDS011;13302;48.796;11.978;2023-06-05T11:12:00;2.30;;;2.20;;
25349;SDS011;13302;48.796;11.978;2023-06-05T11:14:48;3.47;;;2.10;;
25349;SDS011;13302;48.796;11.978;2023-06-05T11:17:36;2.00;;;1.90;;
25349;SDS011;13302;48.796;11.978;2023-06-05T11:23:10;2.70;;;2.50;;
25349;SDS011;13302;48.796;11.978;2023-06-05T11:25:58;2.10;;;2.07;;
25349;SDS011;13302;48.796;11.978;2023-06-05T11:29:24;2.67;;;2.47;;
25349;SDS011;13302;48.796;11.978;2023-06-05T11:32:12;2.10;;;2.00;;
25349;SDS011;13302;48.796;11.978;2023-06-05T11:34:59;2.20;;;2.10;;
25349;SDS011;13302;48.796;11.978;2023-06-05T11:37:47;2.30;;;2.17;;
25349;SDS011;13302;48.796;11.978;2023-06-05T11:40:50;2.17;;;2.07;;
25349;SDS011;13302;48.796;11.978;2023-06-05T11:43:41;2.27;;;2.17;;
25349;SDS011;13302;48.796;11.978;2023-06-05T11:46:38;2.30;;;2.20;;
25349;SDS011;13302;48.796;11.978;2023-06-05T11:49:27;2.47;;;2.27;;
25349;SDS011;13302;48.796;11.978;2023-06-05T11:52:21;2.17;;;2.07;;
25349;SDS011;13302;48.796;11.978;2023-06-05T11:55:18;3.47;;;2.50;;
25349;SDS011;13302;48.796;11.978;2023-06-05T11:58:09;2.27;;;2.17;;
25349;SDS011;13302;48.796;11.978;2023-06-05T12:01:30;2.17;;;2.10;;
25349;SDS011;13302;48.796;11.978;2023-06-05T12:04:18;2.30;;;2.20;;
25349;SDS011;13302;48.796;11.978;2023-06-05T12:07:05;2.70;;;2.60;;
25349;SDS011;13302;48.796;11.978;2023-06-05T12:09:52;2.43;;;2.33;;
25349;SDS011;13302;48.796;11.978;2023-06-05T12:12:51;2.60;;;2.50;;
25349;SDS011;13302;48.796;11.978;2023-06-05T12:15:39;3.13;;;2.83;;
25349;SDS011;13302;48.796;11.978;2023-06-05T12:18:33;2.57;;;2.37;;
25349;SDS011;13302;48.796;11.978;2023-06-05T12:21:24;2.77;;;2.60;;
25349;SDS011;13302;48.796;11.978;2023-06-05T12:24:12;2.50;;;2.37;;
25349;SDS011;13302;48.796;11.978;2023-06-05T12:27:01;2.93;;;2.20;;
25349;SDS011;13302;48.796;11.978;2023-06-05T12:29:54;2.80;;;2.50;;
25349;SDS011;13302;48.796;11.978;2023-06-05T12:32:41;3.00;;;2.30;;
25349;SDS011;13302;48.796;11.978;2023-06-05T12:35:32;2.50;;;2.37;;
25349;SDS011;13302;48.796;11.978;2023-06-05T12:38:19;2.60;;;2.50;;
25349;SDS011;13302;48.796;11.978;2023-06-05T12:41:07;2.50;;;2.40;;
25349;SDS011;13302;48.796;11.978;2023-06-05T12:43:58;2.80;;;2.63;;
25349;SDS011;13302;48.796;11.978;2023-06-05T12:46:46;2.50;;;2.33;;
25349;SDS011;13302;48.796;11.978;2023-06-05T12:49:33;2.50;;;2.30;;
25349;SDS011;13302;48.796;11.978;2023-06-05T12:52:20;2.40;;;2.30;;
25349;SDS011;13302;48.796;11.978;2023-06-05T12:55:12;2.30;;;2.20;;
25349;SDS011;13302;48.796;11.978;2023-06-05T12:57:59;2.90;;;2.70;;
25349;SDS011;13302;48.796;11.978;2023-06-05T13:00:47;3.20;;;2.97;;
25349;SDS011;13302;48.796;11.978;2023-06-05T13:03:34;4.07;;;3.57;;
25349;SDS011;13302;48.796;11.978;2023-06-05T13:06:23;3.13;;;2.87;;
25349;SDS011;13302;48.796;11.978;2023-06-05T13:09:10;3.47;;;2.93;;
25349;SDS011;13302;48.796;11.978;2023-06-05T13:11:57;4.67;;;3.43;;
25349;SDS011;13302;48.796;11.978;2023-06-05T13:14:46;5.23;;;3.27;;
25349;SDS011;13302;48.796;11.978;2023-06-05T13:17:33;5.63;;;3.33;;
25349;SDS011;13302;48.796;11.978;2023-06-05T13:20:22;4.33;;;3.80;;
25349;SDS011;13302;48.796;11.978;2023-06-05T13:23:09;4.47;;;3.60;;
25349;SDS011;13302;48.796;11.978;2023-06-05T13:25:58;3.87;;;3.47;;
25349;SDS011;13302;48.796;11.978;2023-06-05T13:28:46;3.73;;;3.00;;
25349;SDS011;13302;48.796;11.978;2023-06-05T13:31:33;4.63;;;4.00;;
25349;SDS011;13302;48.796;11.978;2023-06-05T13:34:20;4.30;;;3.80;;
25349;SDS011;13302;48.796;11.978;2023-06-05T13:37:07;4.07;;;3.50;;
25349;SDS011;13302;48.796;11.978;2023-06-05T13:40:00;3.63;;;3.40;;
25349;SDS011;13302;48.796;11.978;2023-06-05T13:42:49;3.50;;;3.30;;
25349;SDS011;13302;48.796;11.978;2023-06-05T13:45:38;3.70;;;3.47;;
25349;SDS011;13302;48.796;11.978;2023-06-05T13:48:25;2.97;;;2.70;;
25349;SDS011;13302;48.796;11.978;2023-06-05T13:51:12;4.83;;;3.20;;
25349;SDS011;13302;48.796;11.978;2023-06-05T13:53:59;3.17;;;2.97;;
25349;SDS011;13302;48.796;11.978;2023-06-05T13:56:47;3.10;;;2.90;;
25349;SDS011;13302;48.796;11.978;2023-06-05T13:59:34;3.07;;;2.87;;
25349;SDS011;13302;48.796;11.978;2023-06-05T14:02:21;3.20;;;2.90;;
25349;SDS011;13302;48.796;11.978;2023-06-05T14:05:08;3.00;;;2.90;;
25349;SDS011;13302;48.796;11.978;2023-06-05T14:07:57;2.93;;;2.83;;
25349;SDS011;13302;48.796;11.978;2023-06-05T14:10:44;3.30;;;3.10;;
25349;SDS011;13302;48.796;11.978;2023-06-05T14:13:32;2.70;;;2.50;;
25349;SDS011;13302;48.796;11.978;2023-06-05T14:16:19;2.60;;;2.50;;
25349;SDS011;13302;48.796;11.978;2023-06-05T14:19:07;2.63;;;2.53;;
25349;SDS011;13302;48.796;11.978;2023-06-05T14:21:54;2.70;;;2.60;;
25349;SDS011;13302;48.796;11.978;2023-06-05T14:24:42;2.60;;;2.50;;
25349;SDS011;13302;48.796;11.978;2023-06-05T14:27:29;2.20;;;2.10;;
25349;SDS011;13302;48.796;11.978;2023-06-05T14:30:16;2.30;;;2.20;;
25349;SDS011;13302;48.796;11.978;2023-06-05T14:33:03;2.40;;;2.37;;
25349;SDS011;13302;48.796;11.978;2023-06-05T14:35:50;2.67;;;2.57;;
25349;SDS011;13302;48.796;11.978;2023-06-05T14:38:37;2.50;;;2.40;;
25349;SDS011;13302;48.796;11.978;2023-06-05T14:41:24;2.50;;;2.40;;
25349;SDS011;13302;48.796;11.978;2023-06-05T14:44:12;2.13;;;2.13;;
25349;SDS011;13302;48.796;11.978;2023-06-05T14:47:09;2.20;;;2.20;;
25349;SDS011;13302;48.796;11.978;2023-06-05T14:49:56;2.10;;;2.10;;
25349;SDS011;13302;48.796;11.978;2023-06-05T14:52:43;2.20;;;2.10;;
25349;SDS011;13302;48.796;11.978;2023-06-05T14:55:30;2.50;;;2.40;;
25349;SDS011;13302;48.796;11.978;2023-06-05T14:58:17;2.20;;;2.10;;
25349;SDS011;13302;48.796;11.978;2023-06-05T15:01:04;1.80;;;1.80;;
25349;SDS011;13302;48.796;11.978;2023-06-05T15:03:51;1.60;;;1.60;;
25349;SDS011;13302;48.796;11.978;2023-06-05T15:06:38;1.50;;;1.40;;
25349;SDS011;13302;48.796;11.978;2023-06-05T15:09:25;1.53;;;1.53;;
25349;SDS011;13302;48.796;11.978;2023-06-05T15:12:13;1.60;;;1.60;;
25349;SDS011;13302;48.796;11.978;2023-06-05T15:15:00;1.70;;;1.60;;
25349;SDS011;13302;48.796;11.978;2023-06-05T15:18:06;1.83;;;1.73;;
25349;SDS011;13302;48.796;11.978;2023-06-05T15:20:54;1.77;;;1.77;;
25349;SDS011;13302;48.796;11.978;2023-06-05T15:23:41;1.53;;;1.53;;
25349;SDS011;13302;48.796;11.978;2023-06-05T15:26:28;1.30;;;1.30;;
25349;SDS011;13302;48.796;11.978;2023-06-05T15:29:15;1.00;;;1.00;;
25349;SDS011;13302;48.796;11.978;2023-06-05T15:32:02;1.00;;;1.00;;
25349;SDS011;13302;48.796;11.978;2023-06-05T15:35:06;0.77;;;0.77;;
25349;SDS011;13302;48.796;11.978;2023-06-05T15:37:53;0.80;;;0.80;;
25349;SDS011;13302;48.796;11.978;2023-06-05T15:40:40;0.70;;;0.70;;
25349;SDS011;13302;48.796;11.978;2023-06-05T15:43:27;0.70;;;0.70;;
25349;SDS011;13302;48.796;11.978;2023-06-05T15:46:14;0.60;;;0.60;;
25349;SDS011;13302;48.796;11.978;2023-06-05T15:49:02;0.73;;;0.70;;
25349;SDS011;13302;48.796;11.978;2023-06-05T15:51:49;0.50;;;0.50;;
25349;SDS011;13302;48.796;11.978;2023-06-05T15:54:36;0.60;;;0.60;;
25349;SDS011;13302;48.796;11.978;2023-06-05T15:57:42;0.50;;;0.50;;
25349;SDS011;13302;48.796;11.978;2023-06-05T16:00:31;0.40;;;0.40;;
25349;SDS011;13302;48.796;11.978;2023-06-05T16:03:18;0.60;;;0.60;;
25349;SDS011;13302;48.796;11.978;2023-06-05T16:06:07;0.50;;;0.50;;
25349;SDS011;13302;48.796;11.978;2023-06-05T16:08:54;1.50;;;0.60;;
25349;SDS011;13302;48.796;11.978;2023-06-05T16:11:41;0.53;;;0.53;;
25349;SDS011;13302;48.796;11.978;2023-06-05T16:14:28;1.07;;;0.60;;
25349;SDS011;13302;48.796;11.978;2023-06-05T16:17:16;0.80;;;0.80;;
25349;SDS011;13302;48.796;11.978;2023-06-05T16:20:04;1.80;;;0.60;;
25349;SDS011;13302;48.796;11.978;2023-06-05T16:22:51;1.10;;;0.70;;
25349;SDS011;13302;48.796;11.978;2023-06-05T16:25:38;1.10;;;1.10;;
25349;SDS011;13302;48.796;11.978;2023-06-05T16:28:25;0.70;;;0.70;;
25349;SDS011;13302;48.796;11.978;2023-06-05T16:31:12;0.70;;;0.70;;
25349;SDS011;13302;48.796;11.978;2023-06-05T16:34:10;0.83;;;0.83;;
25349;SDS011;13302;48.796;11.978;2023-06-05T16:36:59;0.70;;;0.70;;
25349;SDS011;13302;48.796;11.978;2023-06-05T16:39:46;0.70;;;0.70;;
25349;SDS011;13302;48.796;11.978;2023-06-05T16:42:33;0.50;;;0.50;;
25349;SDS011;13302;48.796;11.978;2023-06-05T16:45:20;0.60;;;0.60;;
25349;SDS011;13302;48.796;11.978;2023-06-05T16:48:07;0.50;;;0.50;;
25349;SDS011;13302;48.796;11.978;2023-06-05T16:50:57;0.60;;;0.60;;
25349;SDS011;13302;48.796;11.978;2023-06-05T16:53:44;0.43;;;0.43;;
25349;SDS011;13302;48.796;11.978;2023-06-05T16:56:32;0.70;;;0.70;;
25349;SDS011;13302;48.796;11.978;2023-06-05T16:59:19;0.60;;;0.60;;
25349;SDS011;13302;48.796;11.978;2023-06-05T17:02:06;1.07;;;0.70;;
25349;SDS011;13302;48.796;11.978;2023-06-05T17:04:55;0.60;;;0.60;;
25349;SDS011;13302;48.796;11.978;2023-06-05T17:07:43;0.70;;;0.70;;
25349;SDS011;13302;48.796;11.978;2023-06-05T17:10:31;0.63;;;0.63;;
25349;SDS011;13302;48.796;11.978;2023-06-05T17:13:19;0.77;;;0.77;;